createdAt,value
2017-08-22T00:00:41.723Z,1009.9
2017-08-22T00:01:43.228Z,1009.9
2017-08-22T00:02:44.635Z,1009.9
2017-08-22T00:03:46.038Z,1010.0
2017-08-22T00:04:47.550Z,1009.9
2017-08-22T00:05:48.955Z,1009.9
2017-08-22T00:06:50.432Z,1010.0
2017-08-22T00:07:51.833Z,1009.9
2017-08-22T00:08:53.318Z,1010.0
2017-08-22T00:09:54.721Z,1010.0
2017-08-22T00:10:56.114Z,1010.0
2017-08-22T00:11:57.633Z,1010.0
2017-08-22T00:12:59.039Z,1010.1
2017-08-22T00:14:00.442Z,1010.1
2017-08-22T00:15:01.956Z,1010.1
2017-08-22T00:16:03.359Z,1010.1
2017-08-22T00:17:04.834Z,1010.1
2017-08-22T00:18:06.240Z,1010.1
2017-08-22T00:19:07.717Z,1010.1
2017-08-22T00:20:09.121Z,1010.2
2017-08-22T00:21:10.524Z,1010.2
2017-08-22T00:22:12.037Z,1010.3
2017-08-22T00:23:13.440Z,1010.3
2017-08-22T00:24:14.845Z,1010.3
2017-08-22T00:25:16.475Z,1010.4
2017-08-22T00:26:17.883Z,1010.4
2017-08-22T00:27:19.288Z,1010.5
2017-08-22T00:28:20.985Z,1010.6
2017-08-22T00:29:22.389Z,1010.7
2017-08-22T00:30:23.791Z,1010.7
2017-08-22T00:31:25.515Z,1010.8
2017-08-22T00:32:26.915Z,1010.8
2017-08-22T00:33:28.318Z,1010.9
2017-08-22T00:34:30.038Z,1011.0
2017-08-22T00:35:31.441Z,1011.0
2017-08-22T00:36:33.126Z,1011.1
2017-08-22T00:37:34.532Z,1011.1
2017-08-22T00:38:36.211Z,1011.2
2017-08-22T00:39:37.615Z,1011.2
2017-08-22T00:40:39.295Z,1011.3
2017-08-22T00:41:40.701Z,1011.3
2017-08-22T00:42:42.385Z,1011.4
2017-08-22T00:43:43.813Z,1011.5
2017-08-22T00:44:45.485Z,1011.5
2017-08-22T00:45:46.921Z,1011.5
2017-08-22T00:46:48.307Z,1011.6
2017-08-22T00:47:49.788Z,1011.6
2017-08-22T00:48:51.206Z,1011.7
2017-08-22T00:49:52.606Z,1011.8
2017-08-22T00:50:54.314Z,1011.8
2017-08-22T00:51:55.717Z,1011.9
2017-08-22T00:52:57.121Z,1011.9
2017-08-22T00:53:58.920Z,1011.8
2017-08-22T00:55:00.325Z,1011.9
2017-08-22T00:56:01.940Z,1011.9
2017-08-22T00:57:03.360Z,1011.9
2017-08-22T00:58:04.781Z,1011.9
2017-08-22T00:59:06.450Z,1011.9
2017-08-22T01:00:07.855Z,1012.0
2017-08-22T01:01:09.257Z,1012.0
2017-08-22T01:02:10.977Z,1011.9
2017-08-22T01:03:12.385Z,1012.0
2017-08-22T01:04:14.068Z,1012.0
2017-08-22T01:05:15.468Z,1012.0
2017-08-22T01:06:16.873Z,1012.0
2017-08-22T01:07:18.586Z,1012.0
2017-08-22T01:08:19.990Z,1012.1
2017-08-22T01:09:21.398Z,1012.1
2017-08-22T01:10:23.113Z,1012.3
2017-08-22T01:11:24.514Z,1012.3
2017-08-22T01:12:26.201Z,1012.3
2017-08-22T01:13:27.618Z,1012.4
2017-08-22T01:14:30.308Z,1012.4
2017-08-22T01:15:31.713Z,1012.4
2017-08-22T01:16:33.120Z,1012.5
2017-08-22T01:17:34.844Z,1012.5
2017-08-22T01:18:36.241Z,1012.5
2017-08-22T01:19:37.646Z,1012.6
2017-08-22T01:20:39.364Z,1012.6
2017-08-22T01:21:40.762Z,1012.5
2017-08-22T01:22:42.448Z,1012.6
2017-08-22T01:23:43.857Z,1012.6
2017-08-22T01:24:45.570Z,1012.6
2017-08-22T01:25:46.983Z,1012.6
2017-08-22T01:26:48.384Z,1012.6
2017-08-22T01:27:50.056Z,1012.6
2017-08-22T01:28:51.459Z,1012.6
2017-08-22T01:29:52.863Z,1012.6
2017-08-22T01:30:54.379Z,1012.6
2017-08-22T01:31:55.781Z,1012.6
2017-08-22T01:32:57.182Z,1012.5
2017-08-22T01:33:58.712Z,1012.5
2017-08-22T01:35:00.114Z,1012.5
2017-08-22T01:36:01.533Z,1012.5
2017-08-22T01:37:03.227Z,1012.6
2017-08-22T01:38:05.411Z,1012.6
2017-08-22T01:39:06.814Z,1012.6
2017-08-22T01:40:09.144Z,1012.6
2017-08-22T01:41:10.548Z,1012.6
2017-08-22T01:42:11.950Z,1012.6
2017-08-22T01:43:13.508Z,1012.7
2017-08-22T01:44:14.908Z,1012.7
2017-08-22T01:45:16.313Z,1012.7
2017-08-22T01:46:17.837Z,1012.7
2017-08-22T01:47:19.241Z,1012.7
2017-08-22T01:48:21.987Z,1012.7
2017-08-22T01:49:23.391Z,1012.6
2017-08-22T01:50:25.023Z,1012.7
2017-08-22T01:51:26.439Z,1012.7
2017-08-22T01:52:27.842Z,1012.7
2017-08-22T01:53:29.551Z,1012.8
2017-08-22T01:54:30.946Z,1012.8
2017-08-22T01:55:32.349Z,1012.9
2017-08-22T01:56:33.866Z,1012.9
2017-08-22T01:57:35.268Z,1013.0
2017-08-22T01:58:36.680Z,1013.0
2017-08-22T01:59:38.391Z,1013.0
2017-08-22T02:00:39.795Z,1013.0
2017-08-22T02:01:41.199Z,1013.0
2017-08-22T02:02:43.095Z,1013.1
2017-08-22T02:03:44.497Z,1013.1
2017-08-22T02:04:45.906Z,1013.1
2017-08-22T02:05:47.443Z,1013.1
2017-08-22T02:06:48.850Z,1013.1
2017-08-22T02:07:50.532Z,1013.1
2017-08-22T02:08:51.932Z,1013.1
2017-08-22T02:09:53.624Z,1013.0
2017-08-22T02:10:55.025Z,1012.9
2017-08-22T02:11:56.724Z,1012.9
2017-08-22T02:12:58.139Z,1012.9
2017-08-22T02:13:59.837Z,1012.8
2017-08-22T02:15:01.204Z,1012.7
2017-08-22T02:16:02.665Z,1012.7
2017-08-22T02:17:04.067Z,1012.6
2017-08-22T02:18:05.751Z,1012.5
2017-08-22T02:19:07.157Z,1012.4
2017-08-22T02:20:08.836Z,1012.4
2017-08-22T02:21:10.239Z,1012.4
2017-08-22T02:22:11.921Z,1012.4
2017-08-22T02:23:13.709Z,1012.3
2017-08-22T02:24:15.212Z,1012.2
2017-08-22T02:25:16.615Z,1012.2
2017-08-22T02:26:18.299Z,1012.1
2017-08-22T02:27:19.704Z,1012.2
2017-08-22T02:28:21.107Z,1012.1
2017-08-22T02:29:22.645Z,1012.0
2017-08-22T02:30:24.095Z,1012.0
2017-08-22T02:31:25.506Z,1012.0
2017-08-22T02:32:27.144Z,1012.0
2017-08-22T02:33:28.558Z,1011.9
2017-08-22T02:34:30.232Z,1011.9
2017-08-22T02:35:31.669Z,1011.9
2017-08-22T02:36:33.316Z,1011.9
2017-08-22T02:37:34.721Z,1011.9
2017-08-22T02:38:36.404Z,1011.9
2017-08-22T02:39:37.816Z,1011.9
2017-08-22T02:40:39.484Z,1011.9
2017-08-22T02:41:40.909Z,1011.9
2017-08-22T02:42:42.298Z,1011.9
2017-08-22T02:43:43.808Z,1011.8
2017-08-22T02:44:45.210Z,1011.9
2017-08-22T02:45:46.611Z,1011.8
2017-08-22T02:46:48.128Z,1011.8
2017-08-22T02:47:49.533Z,1011.8
2017-08-22T02:48:51.217Z,1011.7
2017-08-22T02:49:52.622Z,1011.8
2017-08-22T02:50:54.298Z,1011.7
2017-08-22T02:51:55.699Z,1011.7
2017-08-22T02:52:57.385Z,1011.7
2017-08-22T02:53:58.786Z,1011.7
2017-08-22T02:55:00.472Z,1011.7
2017-08-22T02:56:01.873Z,1011.7
2017-08-22T02:57:03.558Z,1011.6
2017-08-22T02:58:04.966Z,1011.6
2017-08-22T02:59:06.641Z,1011.6
2017-08-22T03:00:08.044Z,1011.6
2017-08-22T03:01:09.727Z,1011.6
2017-08-22T03:02:11.129Z,1011.6
2017-08-22T03:03:12.533Z,1011.7
2017-08-22T03:04:14.051Z,1011.7
2017-08-22T03:05:15.458Z,1011.7
2017-08-22T03:06:16.854Z,1011.8
2017-08-22T03:07:18.368Z,1011.8
2017-08-22T03:08:19.768Z,1011.9
2017-08-22T03:09:21.476Z,1011.9
2017-08-22T03:10:22.875Z,1011.9
2017-08-22T03:11:24.539Z,1011.9
2017-08-22T03:12:25.947Z,1011.9
2017-08-22T03:13:27.638Z,1012.0
2017-08-22T03:14:29.051Z,1012.0
2017-08-22T03:15:30.710Z,1012.1
2017-08-22T03:16:32.113Z,1012.1
2017-08-22T03:17:33.824Z,1012.1
2017-08-22T03:18:35.230Z,1012.2
2017-08-22T03:19:36.881Z,1012.3
2017-08-22T03:20:38.283Z,1012.3
2017-08-22T03:21:39.965Z,1012.3
2017-08-22T03:22:41.374Z,1012.4
2017-08-22T03:23:42.772Z,1012.4
2017-08-22T03:24:44.286Z,1012.5
2017-08-22T03:25:45.689Z,1012.5
2017-08-22T03:26:47.097Z,1012.5
2017-08-22T03:27:48.608Z,1012.6
2017-08-22T03:28:50.010Z,1012.7
2017-08-22T03:29:51.697Z,1012.7
2017-08-22T03:30:53.101Z,1012.7
2017-08-22T03:31:54.780Z,1012.8
2017-08-22T03:32:56.182Z,1012.9
2017-08-22T03:33:57.864Z,1013.0
2017-08-22T03:34:59.269Z,1013.1
2017-08-22T03:36:00.950Z,1013.1
2017-08-22T03:37:02.357Z,1013.1
2017-08-22T03:38:04.035Z,1013.2
2017-08-22T03:39:05.439Z,1013.3
2017-08-22T03:40:07.130Z,1013.3
2017-08-22T03:41:08.525Z,1013.3
2017-08-22T03:42:10.208Z,1013.4
2017-08-22T03:43:11.609Z,1013.5
2017-08-22T03:44:13.013Z,1013.5
2017-08-22T03:45:14.528Z,1013.6
2017-08-22T03:46:15.930Z,1013.7
2017-08-22T03:47:17.333Z,1013.7
2017-08-22T03:48:18.744Z,1013.8
2017-08-22T03:49:20.148Z,1013.8
2017-08-22T03:50:21.547Z,1013.9
2017-08-22T03:51:23.170Z,1013.9
2017-08-22T03:52:24.571Z,1014.0
2017-08-22T03:53:25.984Z,1013.9
2017-08-22T03:54:27.491Z,1014.0
2017-08-22T03:55:28.893Z,1014.1
2017-08-22T03:56:30.577Z,1014.1
2017-08-22T03:57:31.977Z,1014.1
2017-08-22T03:58:33.660Z,1014.2
2017-08-22T03:59:35.062Z,1014.2
2017-08-22T04:00:36.747Z,1014.2
2017-08-22T04:01:38.150Z,1014.3
2017-08-22T04:02:39.559Z,1014.3
2017-08-22T04:03:41.066Z,1014.4
2017-08-22T04:04:42.481Z,1014.4
2017-08-22T04:05:43.871Z,1014.5
2017-08-22T04:06:45.389Z,1014.5
2017-08-22T04:07:46.792Z,1014.5
2017-08-22T04:08:48.214Z,1014.6
2017-08-22T04:09:49.710Z,1014.6
2017-08-22T04:10:51.117Z,1014.7
2017-08-22T04:11:52.518Z,1014.8
2017-08-22T04:12:54.031Z,1014.8
2017-08-22T04:13:55.455Z,1014.9
2017-08-22T04:14:57.116Z,1014.9
2017-08-22T04:15:58.522Z,1014.9
2017-08-22T04:17:00.201Z,1015.0
2017-08-22T04:18:01.603Z,1015.1
2017-08-22T04:19:03.008Z,1015.1
2017-08-22T04:20:04.523Z,1015.1
2017-08-22T04:21:05.927Z,1015.1
2017-08-22T04:22:07.331Z,1015.2
2017-08-22T04:23:08.855Z,1015.1
2017-08-22T04:24:10.258Z,1015.2
2017-08-22T04:25:11.661Z,1015.2
2017-08-22T04:26:13.174Z,1015.2
2017-08-22T04:27:14.577Z,1015.3
2017-08-22T04:28:15.992Z,1015.3
2017-08-22T04:29:17.487Z,1015.4
2017-08-22T04:30:19.289Z,1015.4
2017-08-22T04:31:20.794Z,1015.4
2017-08-22T04:32:22.196Z,1015.5
2017-08-22T04:33:23.862Z,1015.5
2017-08-22T04:34:25.268Z,1015.5
2017-08-22T04:35:26.666Z,1015.6
2017-08-22T04:36:28.184Z,1015.6
2017-08-22T04:37:29.586Z,1015.6
2017-08-22T04:38:30.990Z,1015.6
2017-08-22T04:39:32.520Z,1015.7
2017-08-22T04:40:33.921Z,1015.7
2017-08-22T04:41:35.386Z,1015.8
2017-08-22T04:42:36.789Z,1015.8
2017-08-22T04:43:38.193Z,1015.9
2017-08-22T04:44:39.707Z,1015.8
2017-08-22T04:45:41.112Z,1015.9
2017-08-22T04:46:42.514Z,1015.9
2017-08-22T04:47:44.027Z,1015.9
2017-08-22T04:48:45.434Z,1016.0
2017-08-22T04:49:46.911Z,1016.0
2017-08-22T04:50:48.314Z,1016.0
2017-08-22T04:51:49.787Z,1016.1
2017-08-22T04:52:51.362Z,1016.1
2017-08-22T04:53:52.873Z,1016.1
2017-08-22T04:54:54.284Z,1016.1
2017-08-22T04:55:55.787Z,1016.2
2017-08-22T04:56:57.191Z,1016.2
2017-08-22T04:57:58.659Z,1016.3
2017-08-22T04:59:00.064Z,1016.3
2017-08-22T05:00:01.898Z,1016.3
2017-08-22T05:01:03.306Z,1016.3
2017-08-22T05:02:04.808Z,1016.4
2017-08-22T05:03:06.215Z,1016.5
2017-08-22T05:04:07.620Z,1016.6
2017-08-22T05:05:09.130Z,1016.6
2017-08-22T05:06:10.536Z,1016.7
2017-08-22T05:07:11.942Z,1016.7
2017-08-22T05:08:13.452Z,1016.8
2017-08-22T05:09:14.854Z,1016.8
2017-08-22T05:10:16.259Z,1016.8
2017-08-22T05:11:17.772Z,1016.8
2017-08-22T05:12:19.176Z,1016.9
2017-08-22T05:13:20.584Z,1017.0
2017-08-22T05:14:22.092Z,1017.0
2017-08-22T05:15:23.497Z,1017.1
2017-08-22T05:16:24.982Z,1017.1
2017-08-22T05:17:26.377Z,1017.2
2017-08-22T05:18:27.788Z,1017.2
2017-08-22T05:19:29.195Z,1017.3
2017-08-22T05:20:30.632Z,1017.3
2017-08-22T05:21:32.038Z,1017.4
2017-08-22T05:22:33.515Z,1017.5
2017-08-22T05:23:34.914Z,1017.6
2017-08-22T05:24:36.395Z,1017.6
2017-08-22T05:25:37.798Z,1017.7
2017-08-22T05:26:39.274Z,1017.7
2017-08-22T05:27:40.681Z,1017.8
2017-08-22T05:28:42.087Z,1017.9
2017-08-22T05:29:43.596Z,1017.9
2017-08-22T05:30:45.001Z,1017.9
2017-08-22T05:31:46.406Z,1018.0
2017-08-22T05:32:47.916Z,1018.0
2017-08-22T05:33:49.321Z,1018.1
2017-08-22T05:34:50.727Z,1018.0
2017-08-22T05:35:52.236Z,1018.0
2017-08-22T05:36:53.647Z,1018.0
2017-08-22T05:37:55.120Z,1018.0
2017-08-22T05:38:56.536Z,1018.1
2017-08-22T05:39:58.000Z,1018.2
2017-08-22T05:40:59.430Z,1018.3
2017-08-22T05:42:00.882Z,1018.3
2017-08-22T05:43:02.288Z,1018.2
2017-08-22T05:44:03.761Z,1018.1
2017-08-22T05:45:05.168Z,1018.2
2017-08-22T05:46:06.649Z,1018.2
2017-08-22T05:47:08.050Z,1018.2
2017-08-22T05:48:09.521Z,1018.4
2017-08-22T05:49:10.930Z,1018.4
2017-08-22T05:50:12.343Z,1018.5
2017-08-22T05:51:13.751Z,1018.6
2017-08-22T05:52:15.182Z,1018.6
2017-08-22T05:53:16.589Z,1018.7
2017-08-22T05:54:18.004Z,1018.9
2017-08-22T05:55:19.500Z,1018.9
2017-08-22T05:56:20.911Z,1019.0
2017-08-22T05:57:22.330Z,1019.1
2017-08-22T05:58:23.822Z,1019.2
2017-08-22T05:59:25.224Z,1019.3
2017-08-22T06:00:26.631Z,1019.3
2017-08-22T06:01:28.143Z,1019.4
2017-08-22T06:02:29.549Z,1019.4
2017-08-22T06:03:31.025Z,1019.5
2017-08-22T06:04:32.435Z,1019.6
2017-08-22T06:05:33.838Z,1019.7
2017-08-22T06:06:35.345Z,1019.8
2017-08-22T06:07:36.752Z,1019.9
2017-08-22T06:08:38.160Z,1020.0
2017-08-22T06:09:39.665Z,1020.1
2017-08-22T06:10:41.091Z,1020.2
2017-08-22T06:11:42.547Z,1020.3
2017-08-22T06:12:43.951Z,1020.3
2017-08-22T06:13:45.427Z,1020.3
2017-08-22T06:14:46.942Z,1020.4
2017-08-22T06:15:48.349Z,1020.5
2017-08-22T06:16:49.919Z,1020.6
2017-08-22T06:17:51.325Z,1020.7
2017-08-22T06:18:52.734Z,1020.8
2017-08-22T06:19:54.237Z,1020.7
2017-08-22T06:20:55.649Z,1020.8
2017-08-22T06:21:57.118Z,1020.8
2017-08-22T06:22:58.526Z,1020.8
2017-08-22T06:24:00.002Z,1020.9
2017-08-22T06:25:01.417Z,1021.0
2017-08-22T06:26:02.881Z,1021.2
2017-08-22T06:27:04.286Z,1021.4
2017-08-22T06:28:05.762Z,1021.5
2017-08-22T06:29:07.172Z,1021.6
2017-08-22T06:30:08.649Z,1021.7
2017-08-22T06:31:10.062Z,1021.8
2017-08-22T06:32:11.524Z,1022.1
2017-08-22T06:33:12.930Z,1022.2
2017-08-22T06:34:14.404Z,1022.3
2017-08-22T06:35:15.810Z,1022.5
2017-08-22T06:36:17.289Z,1022.7
2017-08-22T06:37:18.692Z,1022.8
2017-08-22T06:38:20.167Z,1023.0
2017-08-22T06:39:21.577Z,1023.2
2017-08-22T06:40:23.008Z,1023.3
2017-08-22T06:41:24.416Z,1023.4
2017-08-22T06:42:25.821Z,1023.5
2017-08-22T06:43:27.227Z,1023.7
2017-08-22T06:44:28.636Z,1023.7
2017-08-22T06:45:30.043Z,1024.0
2017-08-22T06:46:31.486Z,1024.1
2017-08-22T06:47:32.907Z,1024.2
2017-08-22T06:48:34.365Z,1024.4
2017-08-22T06:49:35.771Z,1024.5
2017-08-22T06:50:37.176Z,1024.6
2017-08-22T06:51:38.692Z,1024.8
2017-08-22T06:52:40.103Z,1024.8
2017-08-22T06:53:41.893Z,1024.9
2017-08-22T06:54:43.420Z,1025.0
2017-08-22T06:55:44.828Z,1025.2
2017-08-22T06:56:46.237Z,1025.3
2017-08-22T06:57:47.741Z,1025.4
2017-08-22T06:58:49.152Z,1025.4
2017-08-22T06:59:50.560Z,1025.5
2017-08-22T07:00:52.067Z,1025.6
2017-08-22T07:01:53.477Z,1025.6
2017-08-22T07:02:54.948Z,1025.8
2017-08-22T07:03:56.357Z,1025.9
2017-08-22T07:04:57.829Z,1026.0
2017-08-22T07:05:59.239Z,1026.2
2017-08-22T07:07:00.709Z,1026.4
2017-08-22T07:08:02.119Z,1026.5
2017-08-22T07:09:03.590Z,1026.6
2017-08-22T07:10:04.996Z,1026.8
2017-08-22T07:11:06.403Z,1026.9
2017-08-22T07:12:07.914Z,1027.1
2017-08-22T07:13:09.702Z,1027.3
2017-08-22T07:14:11.114Z,1027.5
2017-08-22T07:15:12.656Z,1027.6
2017-08-22T07:16:14.060Z,1027.6
2017-08-22T07:17:15.523Z,1027.7
2017-08-22T07:18:16.935Z,1027.9
2017-08-22T07:19:18.404Z,1028.0
2017-08-22T07:20:19.812Z,1028.1
2017-08-22T07:21:21.284Z,1028.3
2017-08-22T07:22:22.694Z,1028.4
2017-08-22T07:23:24.165Z,1028.5
2017-08-22T07:24:25.573Z,1028.6
2017-08-22T07:25:27.053Z,1028.8
2017-08-22T07:26:28.461Z,1029.1
2017-08-22T07:27:29.928Z,1029.3
2017-08-22T07:28:31.337Z,1029.7
2017-08-22T07:29:32.814Z,1029.9
2017-08-22T07:30:34.217Z,1030.1
2017-08-22T07:31:35.690Z,1030.3
2017-08-22T07:32:37.101Z,1030.5
2017-08-22T07:33:38.571Z,1030.6
2017-08-22T07:34:39.979Z,1030.8
2017-08-22T07:35:41.388Z,1031.0
2017-08-22T07:36:42.893Z,1031.2
2017-08-22T07:37:44.303Z,1031.3
2017-08-22T07:38:45.709Z,1031.4
2017-08-22T07:39:47.215Z,1031.7
2017-08-22T07:40:48.622Z,1032.0
2017-08-22T07:41:50.031Z,1032.2
2017-08-22T07:42:51.536Z,1032.4
2017-08-22T07:43:52.947Z,1032.6
2017-08-22T07:44:54.418Z,1032.9
2017-08-22T07:45:55.824Z,1033.0
2017-08-22T07:46:57.231Z,1033.4
2017-08-22T07:47:58.739Z,1033.8
2017-08-22T07:49:00.148Z,1034.3
2017-08-22T07:50:01.556Z,1034.6
2017-08-22T07:51:03.060Z,1034.8
2017-08-22T07:52:04.469Z,1035.0
2017-08-22T07:53:05.881Z,1035.2
2017-08-22T07:54:07.382Z,1035.4
2017-08-22T07:55:08.789Z,1035.7
2017-08-22T07:56:10.574Z,1035.9
2017-08-22T07:57:12.113Z,1036.2
2017-08-22T07:58:13.526Z,1036.6
2017-08-22T07:59:14.934Z,1037.0
2017-08-22T08:00:16.816Z,1037.1
2017-08-22T08:01:18.225Z,1037.2
2017-08-22T08:02:19.659Z,1037.2
2017-08-22T08:03:21.172Z,1037.2
2017-08-22T08:04:22.582Z,1037.1
2017-08-22T08:05:23.993Z,1036.9
2017-08-22T08:06:25.490Z,1037.0
2017-08-22T08:07:26.897Z,1037.0
2017-08-22T08:08:28.683Z,1037.1
2017-08-22T08:09:30.221Z,1037.3
2017-08-22T08:10:31.631Z,1037.6
2017-08-22T08:11:33.041Z,1038.0
2017-08-22T08:12:34.541Z,1038.1
2017-08-22T08:13:35.951Z,1038.1
2017-08-22T08:14:37.422Z,1038.1
2017-08-22T08:15:38.828Z,1038.1
2017-08-22T08:16:40.303Z,1038.2
2017-08-22T08:17:41.711Z,1038.2
2017-08-22T08:18:43.186Z,1038.1
2017-08-22T08:19:44.598Z,1038.1
2017-08-22T08:20:46.080Z,1038.0
2017-08-22T08:21:47.489Z,1037.9
2017-08-22T08:22:48.946Z,1038.2
2017-08-22T08:23:50.356Z,1038.5
2017-08-22T08:24:51.848Z,1038.7
2017-08-22T08:25:53.239Z,1039.0
2017-08-22T08:26:54.648Z,1039.2
2017-08-22T08:27:56.157Z,1039.5
2017-08-22T08:28:57.561Z,1039.7
2017-08-22T08:29:58.971Z,1040.0
2017-08-22T08:31:00.876Z,1040.3
2017-08-22T08:32:02.299Z,1040.6
2017-08-22T08:33:03.706Z,1040.9
2017-08-22T08:34:05.205Z,1041.2
2017-08-22T08:35:06.621Z,1041.2
2017-08-22T08:36:08.025Z,1041.3
2017-08-22T08:37:09.524Z,1041.6
2017-08-22T08:38:10.923Z,1041.9
2017-08-22T08:39:12.337Z,1042.2
2017-08-22T08:40:13.845Z,1042.5
2017-08-22T08:41:15.259Z,1042.9
2017-08-22T08:42:16.673Z,1043.2
2017-08-22T08:43:18.167Z,1043.3
2017-08-22T08:44:19.576Z,1043.5
2017-08-22T08:45:21.050Z,1043.7
2017-08-22T08:46:22.458Z,1044.0
2017-08-22T08:47:23.931Z,1044.3
2017-08-22T08:48:25.343Z,1044.5
2017-08-22T08:49:26.810Z,1044.7
2017-08-22T08:50:28.234Z,1045.0
2017-08-22T08:51:29.648Z,1045.2
2017-08-22T08:52:31.444Z,1045.5
2017-08-22T08:53:32.874Z,1045.6
2017-08-22T08:54:35.465Z,1046.0
2017-08-22T08:55:36.878Z,1046.4
2017-08-22T08:56:38.316Z,1046.7
2017-08-22T08:57:39.768Z,1046.9
2017-08-22T08:58:41.178Z,1047.2
2017-08-22T08:59:42.669Z,1047.5
2017-08-22T09:00:44.081Z,1047.8
2017-08-22T09:01:45.529Z,1048.2
2017-08-22T09:02:46.942Z,1048.6
2017-08-22T09:03:48.409Z,1049.0
2017-08-22T09:04:49.769Z,1049.3
2017-08-22T09:05:51.295Z,1049.6
2017-08-22T09:06:52.708Z,1049.9
2017-08-22T09:07:54.174Z,1050.2
2017-08-22T09:08:55.583Z,1050.2
2017-08-22T09:09:57.076Z,1050.5
2017-08-22T09:10:58.499Z,1050.8
2017-08-22T09:11:59.917Z,1050.9
2017-08-22T09:13:01.799Z,1051.0
2017-08-22T09:14:03.239Z,1051.2
2017-08-22T09:15:04.620Z,1051.4
2017-08-22T09:16:06.117Z,1051.6
2017-08-22T09:17:07.536Z,1051.8
2017-08-22T09:18:08.990Z,1052.0
2017-08-22T09:19:10.398Z,1052.2
2017-08-22T09:20:11.872Z,1052.2
2017-08-22T09:21:13.303Z,1052.4
2017-08-22T09:22:14.764Z,1052.6
2017-08-22T09:23:16.180Z,1052.9
2017-08-22T09:24:17.631Z,1053.2
2017-08-22T09:25:19.045Z,1053.3
2017-08-22T09:26:20.520Z,1053.5
2017-08-22T09:27:21.931Z,1053.8
2017-08-22T09:28:23.396Z,1054.1
2017-08-22T09:29:24.809Z,1054.3
2017-08-22T09:30:26.299Z,1054.6
2017-08-22T09:31:27.735Z,1054.7
2017-08-22T09:32:29.156Z,1054.8
2017-08-22T09:33:30.569Z,1055.1
2017-08-22T09:34:32.038Z,1055.5
2017-08-22T09:35:33.449Z,1055.9
2017-08-22T09:36:35.943Z,1056.2
2017-08-22T09:37:37.355Z,1056.5
2017-08-22T09:38:38.841Z,1056.9
2017-08-22T09:39:40.260Z,1057.1
2017-08-22T09:40:41.705Z,1057.5
2017-08-22T09:41:43.115Z,1057.9
2017-08-22T09:42:44.552Z,1058.5
2017-08-22T09:43:46.049Z,1058.9
2017-08-22T09:44:47.467Z,1059.3
2017-08-22T09:45:48.887Z,1059.9
2017-08-22T09:46:50.366Z,1060.5
2017-08-22T09:47:51.782Z,1061.1
2017-08-22T09:48:53.233Z,1060.9
2017-08-22T09:49:54.641Z,1061.4
2017-08-22T09:50:56.114Z,1062.0
2017-08-22T09:51:57.534Z,1062.3
2017-08-22T09:52:58.993Z,1063.0
2017-08-22T09:54:00.421Z,1063.3
2017-08-22T09:55:04.131Z,1063.5
2017-08-22T09:56:05.595Z,1063.6
2017-08-22T09:57:07.104Z,1064.3
2017-08-22T09:58:08.519Z,1064.7
2017-08-22T09:59:09.987Z,1065.0
2017-08-22T10:00:11.401Z,1065.5
2017-08-22T10:01:12.862Z,1065.9
2017-08-22T10:02:14.277Z,1066.7
2017-08-22T10:03:15.743Z,1067.5
2017-08-22T10:04:17.155Z,1068.1
2017-08-22T10:05:18.623Z,1069.0
2017-08-22T10:06:20.040Z,1069.7
2017-08-22T10:07:21.505Z,1070.9
2017-08-22T10:08:22.921Z,1072.6
2017-08-22T10:09:24.392Z,1072.5
2017-08-22T10:10:25.813Z,1074.0
2017-08-22T10:11:27.265Z,1076.6
2017-08-22T10:12:28.682Z,1082.5
2017-08-22T10:13:30.149Z,1082.0
2017-08-22T10:14:31.569Z,1077.0
2017-08-22T10:15:33.001Z,1077.8
2017-08-22T10:16:34.414Z,1082.7
2017-08-22T10:17:35.908Z,1081.9
2017-08-22T10:18:37.358Z,1081.9
2017-08-22T10:19:38.798Z,1086.0
2017-08-22T10:20:40.231Z,1090.4
2017-08-22T10:21:41.675Z,1090.1
2017-08-22T10:22:43.093Z,1090.2
2017-08-22T10:23:44.554Z,1090.5
2017-08-22T10:24:45.972Z,1091.2
2017-08-22T10:25:47.431Z,1092.1
2017-08-22T10:26:48.852Z,1093.2
2017-08-22T10:27:50.315Z,1088.6
2017-08-22T10:28:51.742Z,1095.3
2017-08-22T10:29:53.194Z,1096.5
2017-08-22T10:30:54.611Z,1097.6
2017-08-22T10:31:56.071Z,1099.4
2017-08-22T10:32:57.495Z,1100.0
2017-08-22T10:33:58.950Z,1101.0
2017-08-22T10:35:00.373Z,1102.0
2017-08-22T10:36:01.837Z,1102.3
2017-08-22T10:37:03.262Z,1103.0
2017-08-22T10:38:04.678Z,1103.2
2017-08-22T10:39:06.159Z,1102.6
2017-08-22T10:40:07.579Z,1103.2
2017-08-22T10:41:08.995Z,1100.8
2017-08-22T10:42:10.480Z,1098.1
2017-08-22T10:43:11.898Z,1097.9
2017-08-22T10:44:13.319Z,1102.2
2017-08-22T10:45:14.795Z,1099.6
2017-08-22T10:46:16.213Z,1092.8
2017-08-22T10:47:17.630Z,1090.5
2017-08-22T10:48:19.122Z,1092.1
2017-08-22T10:49:20.542Z,1096.5
2017-08-22T10:50:22.005Z,1095.7
2017-08-22T10:51:23.423Z,1091.9
2017-08-22T10:52:24.885Z,1090.7
2017-08-22T10:53:26.297Z,1091.6
2017-08-22T10:54:27.761Z,1092.2
2017-08-22T10:55:29.190Z,1091.3
2017-08-22T10:56:30.642Z,1090.8
2017-08-22T10:57:32.067Z,1090.9
2017-08-22T10:58:33.486Z,1090.9
2017-08-22T10:59:34.974Z,1092.3
2017-08-22T11:00:36.393Z,1094.0
2017-08-22T11:01:37.809Z,1097.0
2017-08-22T11:02:39.665Z,1099.7
2017-08-22T11:03:41.084Z,1101.1
2017-08-22T11:04:42.579Z,1101.6
2017-08-22T11:05:43.997Z,1103.5
2017-08-22T11:06:45.456Z,1105.0
2017-08-22T11:07:46.876Z,1106.4
2017-08-22T11:08:48.335Z,1106.2
2017-08-22T11:09:49.759Z,1106.0
2017-08-22T11:10:51.217Z,1106.5
2017-08-22T11:11:52.637Z,1108.4
2017-08-22T11:12:54.124Z,1108.7
2017-08-22T11:13:55.547Z,1108.6
2017-08-22T11:14:56.958Z,1108.8
2017-08-22T11:15:58.687Z,1109.7
2017-08-22T11:17:00.063Z,1110.5
2017-08-22T11:18:01.502Z,1111.3
2017-08-22T11:19:02.947Z,1113.1
2017-08-22T11:20:04.365Z,1114.5
2017-08-22T11:21:05.825Z,1115.6
2017-08-22T11:22:07.246Z,1116.3
2017-08-22T11:23:08.706Z,1116.7
2017-08-22T11:24:10.126Z,1116.6
2017-08-22T11:25:11.544Z,1116.7
2017-08-22T11:26:13.023Z,1116.9
2017-08-22T11:27:14.446Z,1117.3
2017-08-22T11:28:15.866Z,1117.1
2017-08-22T11:29:17.349Z,1116.6
2017-08-22T11:30:19.460Z,1113.7
2017-08-22T11:31:20.879Z,1108.0
2017-08-22T11:32:22.385Z,1107.6
2017-08-22T11:33:24.186Z,1099.9
2017-08-22T11:34:25.605Z,1094.4
2017-08-22T11:35:27.107Z,1089.2
2017-08-22T11:36:28.529Z,1084.4
2017-08-22T11:37:29.958Z,1079.8
2017-08-22T11:38:31.435Z,1075.3
2017-08-22T11:39:32.849Z,1071.1
2017-08-22T11:40:34.268Z,1067.5
2017-08-22T11:41:35.756Z,1064.1
2017-08-22T11:42:37.172Z,1060.8
2017-08-22T11:43:38.587Z,1057.7
2017-08-22T11:44:40.077Z,1054.8
2017-08-22T11:45:41.508Z,1052.0
2017-08-22T11:46:42.927Z,1049.0
2017-08-22T11:47:44.397Z,1046.2
2017-08-22T11:48:45.816Z,1044.9
2017-08-22T11:49:47.235Z,1043.9
2017-08-22T11:50:48.738Z,1042.4
2017-08-22T11:51:50.151Z,1041.1
2017-08-22T11:52:51.573Z,1041.3
2017-08-22T11:53:53.077Z,1042.0
2017-08-22T11:54:54.498Z,1042.8
2017-08-22T11:55:55.918Z,1043.7
2017-08-22T11:56:57.362Z,1044.9
2017-08-22T11:57:58.864Z,1045.3
2017-08-22T11:59:00.368Z,1044.2
2017-08-22T12:00:01.885Z,1042.7
2017-08-22T12:01:03.312Z,1042.3
2017-08-22T12:02:04.743Z,1040.9
2017-08-22T12:03:06.207Z,1039.8
2017-08-22T12:04:07.621Z,1038.7
2017-08-22T12:05:09.042Z,1037.9
2017-08-22T12:06:10.527Z,1037.1
2017-08-22T12:07:11.944Z,1036.7
2017-08-22T12:08:13.360Z,1036.5
2017-08-22T12:09:14.853Z,1037.5
2017-08-22T12:10:16.278Z,1038.3
2017-08-22T12:11:17.730Z,1039.6
2017-08-22T12:12:19.166Z,1040.5
2017-08-22T12:13:20.612Z,1040.8
2017-08-22T12:14:22.030Z,1040.8
2017-08-22T12:15:23.448Z,1041.7
2017-08-22T12:16:24.934Z,1042.9
2017-08-22T12:17:26.352Z,1044.1
2017-08-22T12:18:27.767Z,1044.8
2017-08-22T12:19:29.255Z,1045.5
2017-08-22T12:20:30.673Z,1045.6
2017-08-22T12:21:32.083Z,1045.6
2017-08-22T12:22:33.571Z,1044.9
2017-08-22T12:23:34.991Z,1044.3
2017-08-22T12:24:36.407Z,1043.4
2017-08-22T12:25:37.896Z,1042.4
2017-08-22T12:26:39.310Z,1041.0
2017-08-22T12:27:40.774Z,1039.7
2017-08-22T12:28:42.190Z,1038.4
2017-08-22T12:29:43.608Z,1037.1
2017-08-22T12:30:45.098Z,1036.5
2017-08-22T12:31:46.537Z,1035.4
2017-08-22T12:32:47.951Z,1034.7
2017-08-22T12:33:49.416Z,1034.2
2017-08-22T12:34:50.835Z,1034.7
2017-08-22T12:35:52.299Z,1036.4
2017-08-22T12:36:53.724Z,1038.1
2017-08-22T12:37:55.179Z,1039.9
2017-08-22T12:38:56.598Z,1041.2
2017-08-22T12:39:58.065Z,1042.3
2017-08-22T12:40:59.490Z,1043.4
2017-08-22T12:42:00.942Z,1044.0
2017-08-22T12:43:02.366Z,1044.6
2017-08-22T12:44:03.784Z,1044.9
2017-08-22T12:45:05.263Z,1045.8
2017-08-22T12:46:06.686Z,1046.7
2017-08-22T12:47:08.120Z,1047.3